sensor_id;sensor_type;location;lat;lon;timestamp;pressure;altitude;pressure_sealevel;temperature;humidity
35023;BME280;21214;44.912;8.204;2023-04-19T00:00:40;99725.47;;;13.75;70.88
35023;BME280;21214;44.912;8.204;2023-04-19T00:03:06;99731.75;;;13.66;70.83
35023;BME280;21214;44.912;8.204;2023-04-19T00:05:31;99729.03;;;13.58;71.42
35023;BME280;21214;44.912;8.204;2023-04-19T00:07:57;99733.50;;;13.31;72.76
35023;BME280;21214;44.912;8.204;2023-04-19T00:10:23;99731.13;;;13.20;73.20
35023;BME280;21214;44.912;8.204;2023-04-19T00:12:48;99728.31;;;13.22;73.34
35023;BME280;21214;44.912;8.204;2023-04-19T00:15:14;99730.06;;;13.31;73.30
35023;BME280;21214;44.912;8.204;2023-04-19T00:17:39;99727.09;;;13.34;72.89
35023;BME280;21214;44.912;8.204;2023-04-19T00:20:05;99724.13;;;13.37;73.36
35023;BME280;21214;44.912;8.204;2023-04-19T00:22:32;99725.94;;;13.36;73.42
35023;BME280;21214;44.912;8.204;2023-04-19T00:24:57;99726.94;;;13.35;73.96
35023;BME280;21214;44.912;8.204;2023-04-19T00:27:23;99722.00;;;13.40;73.46
35023;BME280;21214;44.912;8.204;2023-04-19T00:29:48;99723.66;;;13.41;73.63
35023;BME280;21214;44.912;8.204;2023-04-19T00:32:14;99726.25;;;13.33;74.11
35023;BME280;21214;44.912;8.204;2023-04-19T00:34:39;99718.97;;;13.35;73.89
35023;BME280;21214;44.912;8.204;2023-04-19T00:37:05;99718.84;;;13.37;74.27
35023;BME280;21214;44.912;8.204;2023-04-19T00:39:31;99723.94;;;13.30;75.29
35023;BME280;21214;44.912;8.204;2023-04-19T00:41:56;99716.47;;;13.34;75.02
35023;BME280;21214;44.912;8.204;2023-04-19T00:44:22;99719.28;;;13.32;75.36
35023;BME280;21214;44.912;8.204;2023-04-19T00:46:48;99716.63;;;13.32;75.61
35023;BME280;21214;44.912;8.204;2023-04-19T00:49:15;99718.66;;;13.13;77.33
35023;BME280;21214;44.912;8.204;2023-04-19T00:51:41;99720.09;;;13.07;77.39
35023;BME280;21214;44.912;8.204;2023-04-19T00:54:08;99720.38;;;13.04;77.60
35023;BME280;21214;44.912;8.204;2023-04-19T00:56:34;99716.69;;;12.97;77.89
35023;BME280;21214;44.912;8.204;2023-04-19T00:58:59;99723.97;;;12.95;77.90
35023;BME280;21214;44.912;8.204;2023-04-19T01:01:25;99726.28;;;12.98;77.49
35023;BME280;21214;44.912;8.204;2023-04-19T01:03:50;99719.03;;;13.00;77.69
35023;BME280;21214;44.912;8.204;2023-04-19T01:06:18;99724.34;;;13.00;77.67
35023;BME280;21214;44.912;8.204;2023-04-19T01:08:43;99726.03;;;12.83;78.72
35023;BME280;21214;44.912;8.204;2023-04-19T01:11:09;99721.94;;;12.89;78.22
35023;BME280;21214;44.912;8.204;2023-04-19T01:13:35;99719.94;;;12.91;78.71
35023;BME280;21214;44.912;8.204;2023-04-19T01:16:00;99725.25;;;12.91;78.67
35023;BME280;21214;44.912;8.204;2023-04-19T01:18:26;99725.09;;;12.92;78.89
35023;BME280;21214;44.912;8.204;2023-04-19T01:20:57;99719.94;;;12.91;79.69
35023;BME280;21214;44.912;8.204;2023-04-19T01:23:22;99723.53;;;12.82;81.43
35023;BME280;21214;44.912;8.204;2023-04-19T01:25:48;99721.94;;;12.89;80.58
35023;BME280;21214;44.912;8.204;2023-04-19T01:28:14;99724.22;;;12.84;80.96
35023;BME280;21214;44.912;8.204;2023-04-19T01:30:40;99717.53;;;12.80;81.45
35023;BME280;21214;44.912;8.204;2023-04-19T01:33:05;99726.56;;;12.69;81.98
35023;BME280;21214;44.912;8.204;2023-04-19T01:35:31;99720.13;;;12.71;81.78
35023;BME280;21214;44.912;8.204;2023-04-19T01:37:56;99724.75;;;12.69;81.64
35023;BME280;21214;44.912;8.204;2023-04-19T01:40:22;99718.63;;;12.51;81.90
35023;BME280;21214;44.912;8.204;2023-04-19T01:42:48;99724.41;;;12.37;83.37
35023;BME280;21214;44.912;8.204;2023-04-19T01:45:13;99722.00;;;12.44;83.48
35023;BME280;21214;44.912;8.204;2023-04-19T01:47:39;99718.09;;;12.48;83.69
35023;BME280;21214;44.912;8.204;2023-04-19T01:50:05;99718.16;;;12.38;85.36
35023;BME280;21214;44.912;8.204;2023-04-19T01:52:31;99709.06;;;12.23;86.90
35023;BME280;21214;44.912;8.204;2023-04-19T01:54:56;99709.75;;;12.07;89.07
35023;BME280;21214;44.912;8.204;2023-04-19T01:57:22;99704.81;;;11.95;91.48
35023;BME280;21214;44.912;8.204;2023-04-19T01:59:47;99708.44;;;11.84;92.92
35023;BME280;21214;44.912;8.204;2023-04-19T02:02:12;99715.97;;;11.88;92.55
35023;BME280;21214;44.912;8.204;2023-04-19T02:04:39;99713.72;;;11.94;92.12
35023;BME280;21214;44.912;8.204;2023-04-19T02:07:04;99707.59;;;11.93;92.91
35023;BME280;21214;44.912;8.204;2023-04-19T02:09:30;99714.41;;;11.96;93.14
35023;BME280;21214;44.912;8.204;2023-04-19T02:11:56;99706.25;;;11.79;94.27
35023;BME280;21214;44.912;8.204;2023-04-19T02:14:22;99705.13;;;11.72;95.25
35023;BME280;21214;44.912;8.204;2023-04-19T02:16:47;99707.38;;;11.67;95.66
35023;BME280;21214;44.912;8.204;2023-04-19T02:19:13;99703.50;;;11.71;95.50
35023;BME280;21214;44.912;8.204;2023-04-19T02:21:38;99701.81;;;11.70;95.55
35023;BME280;21214;44.912;8.204;2023-04-19T02:24:03;99702.28;;;11.66;95.60
35023;BME280;21214;44.912;8.204;2023-04-19T02:26:29;99712.41;;;11.70;94.95
35023;BME280;21214;44.912;8.204;2023-04-19T02:28:55;99707.53;;;11.75;94.10
35023;BME280;21214;44.912;8.204;2023-04-19T02:31:20;99714.06;;;11.71;93.88
35023;BME280;21214;44.912;8.204;2023-04-19T02:33:45;99709.06;;;11.68;93.26
35023;BME280;21214;44.912;8.204;2023-04-19T02:36:11;99716.31;;;11.66;93.09
35023;BME280;21214;44.912;8.204;2023-04-19T02:38:36;99713.63;;;11.39;95.50
35023;BME280;21214;44.912;8.204;2023-04-19T02:41:02;99710.28;;;11.37;95.93
35023;BME280;21214;44.912;8.204;2023-04-19T02:43:30;99704.41;;;11.43;95.79
35023;BME280;21214;44.912;8.204;2023-04-19T02:45:55;99707.25;;;11.32;97.83
35023;BME280;21214;44.912;8.204;2023-04-19T02:48:21;99708.66;;;11.26;98.87
35023;BME280;21214;44.912;8.204;2023-04-19T02:50:46;99702.63;;;10.87;100.00
35023;BME280;21214;44.912;8.204;2023-04-19T02:53:12;99701.13;;;10.75;100.00
35023;BME280;21214;44.912;8.204;2023-04-19T02:55:37;99701.81;;;10.77;100.00
35023;BME280;21214;44.912;8.204;2023-04-19T02:58:06;99698.88;;;10.80;100.00
35023;BME280;21214;44.912;8.204;2023-04-19T03:00:37;99700.00;;;10.87;100.00
35023;BME280;21214;44.912;8.204;2023-04-19T03:03:07;99698.47;;;10.94;99.65
35023;BME280;21214;44.912;8.204;2023-04-19T03:05:33;99699.13;;;10.96;99.14
35023;BME280;21214;44.912;8.204;2023-04-19T03:07:59;99697.63;;;10.94;98.63
35023;BME280;21214;44.912;8.204;2023-04-19T03:10:25;99690.41;;;10.86;99.16
35023;BME280;21214;44.912;8.204;2023-04-19T03:12:50;99696.25;;;10.80;99.69
35023;BME280;21214;44.912;8.204;2023-04-19T03:15:16;99697.63;;;10.84;99.09
35023;BME280;21214;44.912;8.204;2023-04-19T03:17:42;99699.72;;;10.81;99.71
35023;BME280;21214;44.912;8.204;2023-04-19T03:20:07;99702.63;;;10.87;99.36
35023;BME280;21214;44.912;8.204;2023-04-19T03:22:36;99699.28;;;10.85;99.60
35023;BME280;21214;44.912;8.204;2023-04-19T03:25:05;99701.81;;;10.77;100.00
35023;BME280;21214;44.912;8.204;2023-04-19T03:27:33;99699.59;;;10.82;100.00
35023;BME280;21214;44.912;8.204;2023-04-19T03:30:02;99698.47;;;10.75;100.00
35023;BME280;21214;44.912;8.204;2023-04-19T03:32:29;99705.69;;;10.73;100.00
35023;BME280;21214;44.912;8.204;2023-04-19T03:34:55;99703.03;;;10.73;100.00
35023;BME280;21214;44.912;8.204;2023-04-19T03:37:21;99708.22;;;10.65;100.00
35023;BME280;21214;44.912;8.204;2023-04-19T03:39:46;99702.25;;;10.53;100.00
35023;BME280;21214;44.912;8.204;2023-04-19T03:42:16;99710.16;;;10.53;100.00
35023;BME280;21214;44.912;8.204;2023-04-19T03:45:00;99704.72;;;10.36;100.00
35023;BME280;21214;44.912;8.204;2023-04-19T03:47:27;99700.69;;;10.32;100.00
35023;BME280;21214;44.912;8.204;2023-04-19T03:49:55;99696.81;;;9.86;100.00
35023;BME280;21214;44.912;8.204;2023-04-19T03:52:22;99697.44;;;9.59;100.00
35023;BME280;21214;44.912;8.204;2023-04-19T03:54:47;99697.31;;;9.30;100.00
35023;BME280;21214;44.912;8.204;2023-04-19T03:57:30;99694.47;;;9.13;100.00
35023;BME280;21214;44.912;8.204;2023-04-19T03:59:58;99690.22;;;9.00;100.00
35023;BME280;21214;44.912;8.204;2023-04-19T04:02:24;99696.19;;;8.82;100.00
35023;BME280;21214;44.912;8.204;2023-04-19T04:04:55;99693.34;;;8.74;100.00
35023;BME280;21214;44.912;8.204;2023-04-19T04:07:22;99690.03;;;8.72;100.00
35023;BME280;21214;44.912;8.204;2023-04-19T04:09:49;99691.81;;;8.92;100.00
35023;BME280;21214;44.912;8.204;2023-04-19T04:12:15;99694.38;;;9.03;100.00
35023;BME280;21214;44.912;8.204;2023-04-19T04:14:40;99699.44;;;9.16;100.00
35023;BME280;21214;44.912;8.204;2023-04-19T04:17:07;99703.34;;;9.21;100.00
35023;BME280;21214;44.912;8.204;2023-04-19T04:19:32;99693.34;;;9.15;100.00
35023;BME280;21214;44.912;8.204;2023-04-19T04:21:58;99696.09;;;9.14;100.00
35023;BME280;21214;44.912;8.204;2023-04-19T04:24:24;99693.09;;;8.97;100.00
35023;BME280;21214;44.912;8.204;2023-04-19T04:27:15;99697.59;;;8.86;100.00
35023;BME280;21214;44.912;8.204;2023-04-19T04:29:44;99699.72;;;8.92;100.00
35023;BME280;21214;44.912;8.204;2023-04-19T04:32:10;99700.28;;;8.75;100.00
35023;BME280;21214;44.912;8.204;2023-04-19T04:34:38;99697.78;;;8.73;100.00
35023;BME280;21214;44.912;8.204;2023-04-19T04:37:07;99699.47;;;8.74;100.00
35023;BME280;21214;44.912;8.204;2023-04-19T04:39:34;99709.81;;;8.87;100.00
35023;BME280;21214;44.912;8.204;2023-04-19T04:42:03;99708.06;;;8.97;100.00
35023;BME280;21214;44.912;8.204;2023-04-19T04:44:32;99709.94;;;9.06;100.00
35023;BME280;21214;44.912;8.204;2023-04-19T04:46:58;99704.16;;;9.12;100.00
35023;BME280;21214;44.912;8.204;2023-04-19T04:49:26;99706.50;;;9.15;100.00
35023;BME280;21214;44.912;8.204;2023-04-19T04:51:51;99703.63;;;9.18;100.00
35023;BME280;21214;44.912;8.204;2023-04-19T04:54:18;99706.59;;;9.04;100.00
35023;BME280;21214;44.912;8.204;2023-04-19T04:56:44;99706.94;;;9.20;100.00
35023;BME280;21214;44.912;8.204;2023-04-19T04:59:10;99714.22;;;9.28;100.00
35023;BME280;21214;44.912;8.204;2023-04-19T05:01:38;99713.94;;;9.31;100.00
35023;BME280;21214;44.912;8.204;2023-04-19T05:04:04;99711.19;;;9.32;100.00
35023;BME280;21214;44.912;8.204;2023-04-19T05:06:31;99714.41;;;9.15;100.00
35023;BME280;21214;44.912;8.204;2023-04-19T05:08:57;99715.00;;;8.98;100.00
35023;BME280;21214;44.912;8.204;2023-04-19T05:11:31;99711.78;;;9.15;100.00
35023;BME280;21214;44.912;8.204;2023-04-19T05:13:57;99710.31;;;9.22;100.00
35023;BME280;21214;44.912;8.204;2023-04-19T05:16:22;99718.91;;;9.24;100.00
35023;BME280;21214;44.912;8.204;2023-04-19T05:18:48;99711.19;;;9.32;100.00
35023;BME280;21214;44.912;8.204;2023-04-19T05:21:14;99713.69;;;9.34;100.00
35023;BME280;21214;44.912;8.204;2023-04-19T05:23:40;99718.63;;;9.27;100.00
35023;BME280;21214;44.912;8.204;2023-04-19T05:26:06;99709.06;;;9.26;100.00
35023;BME280;21214;44.912;8.204;2023-04-19T05:28:32;99711.44;;;9.29;100.00
35023;BME280;21214;44.912;8.204;2023-04-19T05:31:20;99714.16;;;9.18;100.00
35023;BME280;21214;44.912;8.204;2023-04-19T05:34:09;99702.91;;;9.16;100.00
35023;BME280;21214;44.912;8.204;2023-04-19T05:36:34;99703.88;;;9.15;100.00
35023;BME280;21214;44.912;8.204;2023-04-19T05:39:00;99702.84;;;9.27;100.00
35023;BME280;21214;44.912;8.204;2023-04-19T05:41:25;99703.72;;;9.37;100.00
35023;BME280;21214;44.912;8.204;2023-04-19T05:43:51;99704.75;;;9.25;100.00
35023;BME280;21214;44.912;8.204;2023-04-19T05:46:17;99706.13;;;9.20;100.00
35023;BME280;21214;44.912;8.204;2023-04-19T05:48:43;99714.44;;;9.25;100.00
35023;BME280;21214;44.912;8.204;2023-04-19T05:51:29;99707.59;;;9.33;100.00
35023;BME280;21214;44.912;8.204;2023-04-19T05:54:06;99706.53;;;9.45;100.00
35023;BME280;21214;44.912;8.204;2023-04-19T05:56:37;99705.72;;;9.55;100.00
35023;BME280;21214;44.912;8.204;2023-04-19T05:59:03;99702.44;;;9.62;100.00
35023;BME280;21214;44.912;8.204;2023-04-19T06:01:28;99709.94;;;9.67;100.00
35023;BME280;21214;44.912;8.204;2023-04-19T06:03:54;99712.75;;;9.75;100.00
35023;BME280;21214;44.912;8.204;2023-04-19T06:06:23;99712.66;;;9.56;100.00
35023;BME280;21214;44.912;8.204;2023-04-19T06:08:48;99710.81;;;9.77;100.00
35023;BME280;21214;44.912;8.204;2023-04-19T06:11:14;99704.72;;;9.86;100.00
35023;BME280;21214;44.912;8.204;2023-04-19T06:13:40;99702.28;;;9.94;100.00
35023;BME280;21214;44.912;8.204;2023-04-19T06:16:06;99702.81;;;10.07;100.00
35023;BME280;21214;44.912;8.204;2023-04-19T06:18:32;99696.25;;;10.22;100.00
35023;BME280;21214;44.912;8.204;2023-04-19T06:20:57;99698.34;;;10.29;100.00
35023;BME280;21214;44.912;8.204;2023-04-19T06:23:23;99698.75;;;10.53;100.00
35023;BME280;21214;44.912;8.204;2023-04-19T06:25:49;99697.09;;;10.71;100.00
35023;BME280;21214;44.912;8.204;2023-04-19T06:28:15;99694.31;;;10.82;100.00
35023;BME280;21214;44.912;8.204;2023-04-19T06:30:40;99698.56;;;11.02;100.00
35023;BME280;21214;44.912;8.204;2023-04-19T06:33:05;99699.78;;;11.18;100.00
35023;BME280;21214;44.912;8.204;2023-04-19T06:35:31;99695.03;;;11.31;99.28
35023;BME280;21214;44.912;8.204;2023-04-19T06:37:57;99698.88;;;11.46;97.88
35023;BME280;21214;44.912;8.204;2023-04-19T06:40:23;99689.78;;;11.58;96.94
35023;BME280;21214;44.912;8.204;2023-04-19T06:42:48;99692.41;;;11.58;97.15
35023;BME280;21214;44.912;8.204;2023-04-19T06:45:14;99692.38;;;11.77;96.03
35023;BME280;21214;44.912;8.204;2023-04-19T06:47:40;99682.06;;;11.74;95.36
35023;BME280;21214;44.912;8.204;2023-04-19T06:50:06;99687.75;;;12.07;93.18
35023;BME280;21214;44.912;8.204;2023-04-19T06:52:31;99688.00;;;12.13;92.34
35023;BME280;21214;44.912;8.204;2023-04-19T06:54:57;99683.50;;;12.14;91.26
35023;BME280;21214;44.912;8.204;2023-04-19T06:57:22;99681.69;;;12.32;90.66
35023;BME280;21214;44.912;8.204;2023-04-19T06:59:47;99681.34;;;12.45;90.44
35023;BME280;21214;44.912;8.204;2023-04-19T07:02:13;99681.03;;;12.48;90.06
35023;BME280;21214;44.912;8.204;2023-04-19T07:04:38;99675.56;;;12.49;90.53
35023;BME280;21214;44.912;8.204;2023-04-19T07:07:03;99681.69;;;12.67;89.84
35023;BME280;21214;44.912;8.204;2023-04-19T07:09:29;99674.72;;;12.66;90.40
35023;BME280;21214;44.912;8.204;2023-04-19T07:11:54;99682.47;;;12.78;90.43
35023;BME280;21214;44.912;8.204;2023-04-19T07:14:19;99677.78;;;12.97;89.30
35023;BME280;21214;44.912;8.204;2023-04-19T07:16:45;99677.13;;;13.13;88.18
35023;BME280;21214;44.912;8.204;2023-04-19T07:19:11;99672.53;;;13.23;86.76
35023;BME280;21214;44.912;8.204;2023-04-19T07:21:36;99678.53;;;13.33;85.98
35023;BME280;21214;44.912;8.204;2023-04-19T07:24:03;99670.66;;;13.41;85.67
35023;BME280;21214;44.912;8.204;2023-04-19T07:26:29;99667.72;;;13.52;85.54
35023;BME280;21214;44.912;8.204;2023-04-19T07:28:54;99670.09;;;13.64;84.13
35023;BME280;21214;44.912;8.204;2023-04-19T07:31:21;99664.81;;;13.72;83.14
35023;BME280;21214;44.912;8.204;2023-04-19T07:33:46;99666.84;;;13.78;82.72
35023;BME280;21214;44.912;8.204;2023-04-19T07:36:11;99672.81;;;13.88;81.85
35023;BME280;21214;44.912;8.204;2023-04-19T07:38:37;99664.56;;;13.99;80.80
35023;BME280;21214;44.912;8.204;2023-04-19T07:41:02;99670.25;;;14.12;80.76
35023;BME280;21214;44.912;8.204;2023-04-19T07:43:29;99666.94;;;14.26;78.80
35023;BME280;21214;44.912;8.204;2023-04-19T07:45:54;99663.63;;;14.32;78.76
35023;BME280;21214;44.912;8.204;2023-04-19T07:48:20;99663.34;;;14.44;77.88
35023;BME280;21214;44.912;8.204;2023-04-19T07:50:45;99656.72;;;14.56;77.43
35023;BME280;21214;44.912;8.204;2023-04-19T07:53:11;99659.22;;;14.57;77.30
35023;BME280;21214;44.912;8.204;2023-04-19T07:55:36;99660.38;;;14.63;77.25
35023;BME280;21214;44.912;8.204;2023-04-19T07:58:02;99655.06;;;14.71;76.69
35023;BME280;21214;44.912;8.204;2023-04-19T08:00:27;99654.56;;;14.75;76.46
35023;BME280;21214;44.912;8.204;2023-04-19T08:02:54;99647.06;;;14.87;76.10
35023;BME280;21214;44.912;8.204;2023-04-19T08:05:21;99651.72;;;15.01;75.66
35023;BME280;21214;44.912;8.204;2023-04-19T08:07:46;99649.03;;;15.09;74.94
35023;BME280;21214;44.912;8.204;2023-04-19T08:10:12;99636.72;;;15.16;74.36
35023;BME280;21214;44.912;8.204;2023-04-19T08:12:37;99640.38;;;15.24;73.98
35023;BME280;21214;44.912;8.204;2023-04-19T08:15:04;99636.34;;;15.28;73.58
35023;BME280;21214;44.912;8.204;2023-04-19T08:17:31;99641.97;;;15.41;72.81
35023;BME280;21214;44.912;8.204;2023-04-19T08:19:56;99635.97;;;15.55;72.44
35023;BME280;21214;44.912;8.204;2023-04-19T08:22:22;99632.09;;;15.66;71.66
35023;BME280;21214;44.912;8.204;2023-04-19T08:24:48;99636.22;;;15.76;70.63
35023;BME280;21214;44.912;8.204;2023-04-19T08:27:14;99633.53;;;15.84;69.43
35023;BME280;21214;44.912;8.204;2023-04-19T08:29:39;99632.56;;;15.77;69.80
35023;BME280;21214;44.912;8.204;2023-04-19T08:32:05;99629.81;;;15.85;69.84
35023;BME280;21214;44.912;8.204;2023-04-19T08:34:30;99622.09;;;15.68;67.97
35023;BME280;21214;44.912;8.204;2023-04-19T08:36:56;99625.56;;;15.76;68.12
35023;BME280;21214;44.912;8.204;2023-04-19T08:39:21;99618.84;;;15.88;67.40
35023;BME280;21214;44.912;8.204;2023-04-19T08:41:47;99625.84;;;15.89;65.69
35023;BME280;21214;44.912;8.204;2023-04-19T08:44:13;99613.16;;;15.91;65.50
35023;BME280;21214;44.912;8.204;2023-04-19T08:46:40;99607.44;;;16.03;65.09
35023;BME280;21214;44.912;8.204;2023-04-19T08:49:06;99614.72;;;16.09;65.56
35023;BME280;21214;44.912;8.204;2023-04-19T08:51:32;99606.69;;;16.17;65.61
35023;BME280;21214;44.912;8.204;2023-04-19T08:53:58;99603.56;;;16.13;65.65
35023;BME280;21214;44.912;8.204;2023-04-19T08:56:23;99606.97;;;16.22;65.41
35023;BME280;21214;44.912;8.204;2023-04-19T08:58:49;99600.28;;;16.26;64.92
35023;BME280;21214;44.912;8.204;2023-04-19T09:01:14;99604.56;;;16.35;64.19
35023;BME280;21214;44.912;8.204;2023-04-19T09:03:43;99598.97;;;16.45;63.47
35023;BME280;21214;44.912;8.204;2023-04-19T09:06:11;99597.69;;;16.41;62.62
35023;BME280;21214;44.912;8.204;2023-04-19T09:08:38;99593.91;;;16.35;62.13
35023;BME280;21214;44.912;8.204;2023-04-19T09:11:07;99595.19;;;16.39;60.99
35023;BME280;21214;44.912;8.204;2023-04-19T09:13:32;99589.81;;;16.47;60.96
35023;BME280;21214;44.912;8.204;2023-04-19T09:16:00;99583.69;;;16.61;60.79
35023;BME280;21214;44.912;8.204;2023-04-19T09:18:26;99582.47;;;16.72;60.15
35023;BME280;21214;44.912;8.204;2023-04-19T09:20:52;99577.88;;;16.81;59.92
35023;BME280;21214;44.912;8.204;2023-04-19T09:23:25;99575.97;;;16.89;59.97
35023;BME280;21214;44.912;8.204;2023-04-19T09:28:21;99577.06;;;16.95;57.17
35023;BME280;21214;44.912;8.204;2023-04-19T09:30:46;99565.00;;;16.99;56.04
35023;BME280;21214;44.912;8.204;2023-04-19T09:33:12;99571.63;;;17.03;57.09
35023;BME280;21214;44.912;8.204;2023-04-19T09:35:47;99551.94;;;17.04;57.28
35023;BME280;21214;44.912;8.204;2023-04-19T09:38:14;99552.53;;;17.14;56.87
35023;BME280;21214;44.912;8.204;2023-04-19T09:40:39;99553.06;;;17.24;56.41
35023;BME280;21214;44.912;8.204;2023-04-19T09:43:05;99543.94;;;17.33;56.24
35023;BME280;21214;44.912;8.204;2023-04-19T09:45:40;99545.50;;;17.42;56.00
35023;BME280;21214;44.912;8.204;2023-04-19T09:48:06;99543.09;;;17.47;55.24
35023;BME280;21214;44.912;8.204;2023-04-19T09:50:32;99539.28;;;17.56;55.62
35023;BME280;21214;44.912;8.204;2023-04-19T09:52:58;99533.47;;;17.68;55.64
35023;BME280;21214;44.912;8.204;2023-04-19T09:55:23;99528.28;;;17.81;55.34
35023;BME280;21214;44.912;8.204;2023-04-19T09:57:50;99528.78;;;17.91;54.77
35023;BME280;21214;44.912;8.204;2023-04-19T10:00:16;99522.34;;;18.00;53.45
35023;BME280;21214;44.912;8.204;2023-04-19T10:02:41;99516.59;;;18.03;52.00
35023;BME280;21214;44.912;8.204;2023-04-19T10:05:08;99520.75;;;18.06;52.71
35023;BME280;21214;44.912;8.204;2023-04-19T10:07:34;99513.16;;;18.09;52.34
35023;BME280;21214;44.912;8.204;2023-04-19T10:10:01;99505.44;;;18.14;52.36
35023;BME280;21214;44.912;8.204;2023-04-19T10:12:27;99502.75;;;18.14;51.48
35023;BME280;21214;44.912;8.204;2023-04-19T10:14:55;99501.94;;;18.20;50.94
35023;BME280;21214;44.912;8.204;2023-04-19T10:17:22;99499.56;;;18.25;50.81
35023;BME280;21214;44.912;8.204;2023-04-19T10:19:47;99491.38;;;18.33;48.57
35023;BME280;21214;44.912;8.204;2023-04-19T10:22:15;99494.28;;;18.38;46.55
35023;BME280;21214;44.912;8.204;2023-04-19T10:24:52;99492.69;;;18.44;45.07
35023;BME280;21214;44.912;8.204;2023-04-19T10:27:26;99483.22;;;18.41;42.50
35023;BME280;21214;44.912;8.204;2023-04-19T10:29:58;99476.66;;;18.44;41.88
35023;BME280;21214;44.912;8.204;2023-04-19T10:32:43;99477.47;;;18.45;41.53
35023;BME280;21214;44.912;8.204;2023-04-19T10:35:22;99476.09;;;18.49;40.71
35023;BME280;21214;44.912;8.204;2023-04-19T10:43:23;99454.56;;;18.57;40.12
35023;BME280;21214;44.912;8.204;2023-04-19T10:45:49;99449.03;;;18.58;40.23
35023;BME280;21214;44.912;8.204;2023-04-19T10:51:04;99443.97;;;18.70;40.15
35023;BME280;21214;44.912;8.204;2023-04-19T10:53:44;99438.50;;;18.85;38.22
35023;BME280;21214;44.912;8.204;2023-04-19T10:56:10;99432.97;;;18.93;37.14
35023;BME280;21214;44.912;8.204;2023-04-19T11:03:58;99411.44;;;19.07;38.79
35023;BME280;21214;44.912;8.204;2023-04-19T11:06:24;99407.13;;;19.13;39.12
35023;BME280;21214;44.912;8.204;2023-04-19T11:08:52;99393.56;;;19.21;38.59
35023;BME280;21214;44.912;8.204;2023-04-19T11:11:18;99386.56;;;19.27;38.14
35023;BME280;21214;44.912;8.204;2023-04-19T11:13:43;99375.47;;;19.30;37.75
35023;BME280;21214;44.912;8.204;2023-04-19T11:16:11;99376.72;;;19.34;36.28
35023;BME280;21214;44.912;8.204;2023-04-19T11:18:36;99381.06;;;19.35;36.54
35023;BME280;21214;44.912;8.204;2023-04-19T11:21:02;99370.16;;;19.43;35.92
35023;BME280;21214;44.912;8.204;2023-04-19T11:23:27;99361.75;;;19.46;36.34
35023;BME280;21214;44.912;8.204;2023-04-19T11:25:53;99362.78;;;19.51;36.01
35023;BME280;21214;44.912;8.204;2023-04-19T11:28:19;99364.44;;;19.59;35.52
35023;BME280;21214;44.912;8.204;2023-04-19T11:30:45;99349.59;;;19.63;34.69
35023;BME280;21214;44.912;8.204;2023-04-19T11:33:12;99354.97;;;19.70;34.87
35023;BME280;21214;44.912;8.204;2023-04-19T11:35:37;99344.88;;;19.78;33.35
35023;BME280;21214;44.912;8.204;2023-04-19T11:38:03;99333.94;;;19.86;32.64
35023;BME280;21214;44.912;8.204;2023-04-19T11:40:29;99333.72;;;19.94;32.68
35023;BME280;21214;44.912;8.204;2023-04-19T11:42:56;99335.13;;;20.17;31.99
35023;BME280;21214;44.912;8.204;2023-04-19T11:45:23;99332.44;;;20.17;31.49
35023;BME280;21214;44.912;8.204;2023-04-19T11:47:49;99317.81;;;20.26;30.80
35023;BME280;21214;44.912;8.204;2023-04-19T11:52:56;99316.53;;;20.41;31.73
35023;BME280;21214;44.912;8.204;2023-04-19T11:55:22;99306.59;;;20.55;32.15
35023;BME280;21214;44.912;8.204;2023-04-19T11:57:47;99306.53;;;20.68;31.41
35023;BME280;21214;44.912;8.204;2023-04-19T12:00:16;99302.75;;;20.82;31.72
35023;BME280;21214;44.912;8.204;2023-04-19T12:02:51;99303.50;;;20.96;31.32
35023;BME280;21214;44.912;8.204;2023-04-19T12:05:16;99293.50;;;21.10;31.62
35023;BME280;21214;44.912;8.204;2023-04-19T12:08:01;99281.06;;;21.22;29.89
35023;BME280;21214;44.912;8.204;2023-04-19T12:10:30;99284.69;;;21.34;29.66
35023;BME280;21214;44.912;8.204;2023-04-19T12:12:55;99278.75;;;21.50;30.11
35023;BME280;21214;44.912;8.204;2023-04-19T12:15:21;99271.97;;;21.73;30.20
35023;BME280;21214;44.912;8.204;2023-04-19T12:17:59;99268.09;;;21.87;30.05
35023;BME280;21214;44.912;8.204;2023-04-19T12:20:29;99270.81;;;22.05;29.60
35023;BME280;21214;44.912;8.204;2023-04-19T12:22:54;99267.38;;;22.16;29.75
35023;BME280;21214;44.912;8.204;2023-04-19T12:25:20;99262.59;;;22.36;29.57
35023;BME280;21214;44.912;8.204;2023-04-19T12:27:45;99250.47;;;22.45;28.56
35023;BME280;21214;44.912;8.204;2023-04-19T12:30:10;99247.63;;;22.59;29.30
35023;BME280;21214;44.912;8.204;2023-04-19T12:32:36;99251.81;;;22.73;28.21
35023;BME280;21214;44.912;8.204;2023-04-19T12:35:02;99248.09;;;22.85;28.30
35023;BME280;21214;44.912;8.204;2023-04-19T12:37:33;99242.28;;;23.00;27.49
35023;BME280;21214;44.912;8.204;2023-04-19T12:39:59;99243.00;;;23.07;27.75
35023;BME280;21214;44.912;8.204;2023-04-19T12:42:24;99240.69;;;23.22;28.17
35023;BME280;21214;44.912;8.204;2023-04-19T12:44:50;99233.94;;;23.32;27.20
35023;BME280;21214;44.912;8.204;2023-04-19T12:47:15;99235.69;;;23.38;27.75
35023;BME280;21214;44.912;8.204;2023-04-19T12:49:41;99221.88;;;23.57;28.05
35023;BME280;21214;44.912;8.204;2023-04-19T12:52:06;99217.69;;;23.73;27.38
35023;BME280;21214;44.912;8.204;2023-04-19T12:54:31;99221.41;;;23.84;27.36
35023;BME280;21214;44.912;8.204;2023-04-19T12:56:56;99215.91;;;23.90;27.45
35023;BME280;21214;44.912;8.204;2023-04-19T12:59:22;99202.03;;;23.98;26.60
35023;BME280;21214;44.912;8.204;2023-04-19T13:01:48;99212.91;;;24.03;26.14
35023;BME280;21214;44.912;8.204;2023-04-19T13:04:13;99198.25;;;24.23;26.47
35023;BME280;21214;44.912;8.204;2023-04-19T13:06:42;99195.28;;;24.36;25.33
35023;BME280;21214;44.912;8.204;2023-04-19T13:09:07;99179.06;;;24.47;25.30
35023;BME280;21214;44.912;8.204;2023-04-19T13:11:32;99184.63;;;24.58;25.01
35023;BME280;21214;44.912;8.204;2023-04-19T13:13:58;99167.31;;;24.70;25.38
35023;BME280;21214;44.912;8.204;2023-04-19T13:16:23;99158.19;;;24.88;25.48